Time;durP1;ratioP1;P1;durP2;ratioP2;P2;SDS_P1;SDS_P2;PMS_P1;PMS_P2;Temp;Humidity;BMP_temperature;BMP_pressure;BME280_temperature;BME280_humidity;BME280_pressure;Samples;Min_cycle;Max_cycle;Signal;HPM_P1;HPM_P2
2021/03/15 00:01:51;;;;;;;;;;;2.00;99.90;;;;;;5090516;28;20421;-76
2021/03/15 00:04:17;;;;;;;;;;;2.00;99.90;;;;;;5089379;28;19915;-76
2021/03/15 00:06:43;;;;;;;;;;;1.90;99.90;;;;;;5091136;28;19915;-76
2021/03/15 00:09:08;;;;;;;;;;;1.90;99.90;;;;;;5092791;28;19908;-76
2021/03/15 00:11:34;;;;;;;;;;;1.80;99.90;;;;;;5092543;28;20045;-76
2021/03/15 00:13:59;;;;;;;;;;;1.80;99.90;;;;;;5092387;28;19927;-76
2021/03/15 00:16:25;;;;;;;;;;;1.80;99.90;;;;;;5091997;28;20396;-76
2021/03/15 00:18:50;;;;;;;;;;;1.80;99.90;;;;;;5091169;28;19911;-76
2021/03/15 00:21:16;;;;;;;;;;;1.70;99.90;;;;;;5092322;28;19915;-76
2021/03/15 00:23:41;;;;;;;;;;;1.70;99.90;;;;;;5091138;28;20257;-76
2021/03/15 00:26:07;;;;;;;;;;;1.70;99.90;;;;;;5092365;28;20321;-76
2021/03/15 00:28:32;;;;;;;;;;;1.70;99.90;;;;;;5092097;28;19908;-76
2021/03/15 00:30:58;;;;;;;;;;;1.60;99.90;;;;;;5090919;28;20391;-76
2021/03/15 00:33:23;;;;;;;;;;;1.60;99.90;;;;;;5085450;28;19960;-76
2021/03/15 00:35:49;;;;;;;;;;;1.60;99.90;;;;;;5091680;28;19916;-76
2021/03/15 00:38:15;;;;;;;;;;;1.60;99.90;;;;;;5090783;28;19908;-76
2021/03/15 00:40:40;;;;;;;;;;;1.60;99.90;;;;;;5092034;28;19916;-76
2021/03/15 00:43:06;;;;;;;;;;;1.60;99.90;;;;;;5090711;28;20384;-76
2021/03/15 00:45:31;;;;;;;;;;;1.60;99.90;;;;;;5091789;28;19955;-76
2021/03/15 00:47:57;;;;;;;;;;;1.50;99.90;;;;;;5091792;28;19908;-76
2021/03/15 00:50:22;;;;;;;;;;;1.50;99.90;;;;;;5091868;28;20247;-76
2021/03/15 00:52:48;;;;;;;;;;;1.50;99.90;;;;;;5090539;28;20161;-76
2021/03/15 00:55:13;;;;;;;;;;;1.50;99.90;;;;;;5090198;28;19919;-75
2021/03/15 00:57:39;;;;;;;;;;;1.50;99.90;;;;;;5089978;28;19908;-76
2021/03/15 01:00:07;;;;;;;;;;;1.50;99.90;;;;;;5091665;28;20285;-75
2021/03/15 01:02:33;;;;;;;;;;;1.50;99.90;;;;;;5085104;28;19912;-76
2021/03/15 01:04:58;;;;;;;;;;;1.50;99.90;;;;;;5090214;28;19908;-76
2021/03/15 01:07:24;;;;;;;;;;;1.50;99.90;;;;;;5091311;28;20277;-76
2021/03/15 01:09:49;;;;;;;;;;;1.50;99.90;;;;;;5091579;28;19915;-75
2021/03/15 01:12:15;;;;;;;;;;;1.50;99.90;;;;;;5091303;28;20459;-76
2021/03/15 01:14:40;;;;;;;;;;;1.40;99.90;;;;;;5091345;28;20081;-75
2021/03/15 01:17:09;;;;;;;;;;;1.40;99.90;;;;;;5091223;28;19912;-75
2021/03/15 01:19:35;;;;;;;;;;;1.40;99.90;;;;;;5091373;28;19908;-75
2021/03/15 01:22:00;;;;;;;;;;;1.40;99.90;;;;;;5091463;28;20007;-75
2021/03/15 01:24:26;;;;;;;;;;;1.40;99.90;;;;;;5090168;28;19934;-76
2021/03/15 01:26:51;;;;;;;;;;;1.30;99.90;;;;;;5084227;28;19908;-76
2021/03/15 01:29:17;;;;;;;;;;;1.30;99.90;;;;;;5091148;28;19908;-76
2021/03/15 01:31:43;;;;;;;;;;;1.40;99.90;;;;;;5087588;28;19908;-75
2021/03/15 01:34:08;;;;;;;;;;;1.30;99.90;;;;;;5085386;28;19912;-76
2021/03/15 01:36:35;;;;;;;;;;;1.30;99.90;;;;;;5090819;28;19912;-76
2021/03/15 01:39:01;;;;;;;;;;;1.30;99.90;;;;;;5082689;28;19966;-76
2021/03/15 01:41:27;;;;;;;;;;;1.40;99.90;;;;;;5090934;28;19940;-76
2021/03/15 01:43:52;;;;;;;;;;;1.30;99.90;;;;;;5091150;28;19961;-76
2021/03/15 01:46:19;;;;;;;;;;;1.30;99.90;;;;;;5089532;28;19908;-75
2021/03/15 01:48:44;;;;;;;;;;;1.40;99.90;;;;;;5091175;28;19908;-75
2021/03/15 01:51:10;;;;;;;;;;;1.40;99.90;;;;;;5091073;28;19935;-75
2021/03/15 01:53:35;;;;;;;;;;;1.30;99.90;;;;;;5091137;28;19957;-76
2021/03/15 01:56:01;;;;;;;;;;;1.40;99.90;;;;;;5089212;28;19915;-75
2021/03/15 01:58:26;;;;;;;;;;;1.40;99.90;;;;;;5089818;28;19931;-75
2021/03/15 02:00:52;;;;;;;;;;;1.40;99.90;;;;;;5088029;28;19919;-75
2021/03/15 02:03:18;;;;;;;;;;;1.50;99.90;;;;;;5090939;28;19912;-75
2021/03/15 02:05:43;;;;;;;;;;;1.50;99.90;;;;;;5087812;28;20365;-75
2021/03/15 02:08:09;;;;;;;;;;;1.50;99.90;;;;;;5082064;28;19912;-75
2021/03/15 02:10:35;;;;;;;;;;;1.60;99.90;;;;;;5093826;28;19935;-75
2021/03/15 02:13:13;;;;;;;;;;;1.60;99.90;;;;;;5093383;28;19942;-75
2021/03/15 02:15:55;;;;;;;;;;;1.60;99.90;;;;;;5094495;28;19923;-75
2021/03/15 02:18:32;;;;;;;;;;;1.70;99.90;;;;;;5093425;28;20282;-75
2021/03/15 02:21:07;;;;;;;;;;;1.70;99.90;;;;;;5094705;28;20402;-75
2021/03/15 02:23:34;;;;;;;;;;;1.80;99.90;;;;;;5094453;28;19980;-75
2021/03/15 02:26:09;;;;;;;;;;;1.80;99.90;;;;;;5093066;28;19916;-75
2021/03/15 02:28:55;;;;;;;;;;;1.80;99.90;;;;;;5094380;28;19908;-75
2021/03/15 02:31:20;;;;;;;;;;;1.80;99.90;;;;;;5083044;28;20560;-75
2021/03/15 02:33:56;;;;;;;;;;;1.80;99.90;;;;;;5094327;28;19987;-75
2021/03/15 02:36:23;;;;;;;;;;;1.80;99.90;;;;;;5093000;28;20334;-75
2021/03/15 02:38:49;;;;;;;;;;;1.80;99.90;;;;;;5087920;28;19908;-75
2021/03/15 02:41:17;;;;;;;;;;;1.80;99.90;;;;;;5093882;28;19909;-75
2021/03/15 02:43:47;;;;;;;;;;;1.70;99.90;;;;;;5094215;28;19919;-75
2021/03/15 02:46:18;;;;;;;;;;;1.80;99.90;;;;;;5092485;28;20128;-75
2021/03/15 02:48:44;;;;;;;;;;;1.70;99.90;;;;;;5093102;28;19917;-75
2021/03/15 02:51:11;;;;;;;;;;;1.70;99.90;;;;;;5094274;28;20334;-75
2021/03/15 02:53:38;;;;;;;;;;;1.70;99.90;;;;;;5094011;28;19912;-75
2021/03/15 02:56:06;;;;;;;;;;;1.70;99.90;;;;;;5093705;28;20007;-75
2021/03/15 02:58:33;;;;;;;;;;;1.60;99.90;;;;;;5092670;28;19908;-75
2021/03/15 03:00:59;;;;;;;;;;;1.60;99.90;;;;;;5093753;28;19908;-75
2021/03/15 03:03:25;;;;;;;;;;;1.60;99.90;;;;;;5093792;28;19961;-75
2021/03/15 03:05:51;;;;;;;;;;;1.60;99.90;;;;;;5088436;28;19908;-75
2021/03/15 03:08:20;;;;;;;;;;;1.70;99.90;;;;;;5087344;28;19915;-75
2021/03/15 03:10:47;;;;;;;;;;;1.70;99.90;;;;;;5093332;28;19951;-75
2021/03/15 03:13:12;;;;;;;;;;;1.70;99.90;;;;;;5093724;28;20015;-75
2021/03/15 03:15:38;;;;;;;;;;;1.70;99.90;;;;;;5092175;28;20412;-75
2021/03/15 03:18:04;;;;;;;;;;;1.70;99.90;;;;;;5093533;28;19908;-75
2021/03/15 03:20:29;;;;;;;;;;;1.70;99.90;;;;;;5093434;28;19955;-75
2021/03/15 03:22:57;;;;;;;;;;;1.70;99.90;;;;;;5093442;28;19915;-75
2021/03/15 03:25:24;;;;;;;;;;;1.60;99.90;;;;;;5093314;28;19908;-75
2021/03/15 03:27:54;;;;;;;;;;;1.60;99.90;;;;;;5092931;28;19908;-75
2021/03/15 03:30:25;;;;;;;;;;;1.60;99.90;;;;;;5093628;28;19908;-75
2021/03/15 03:32:51;;;;;;;;;;;1.70;99.90;;;;;;5093158;28;20349;-75
2021/03/15 03:35:17;;;;;;;;;;;1.60;99.90;;;;;;5093168;28;20058;-75
2021/03/15 03:37:42;;;;;;;;;;;1.60;99.90;;;;;;5090955;28;20374;-75
2021/03/15 03:40:08;;;;;;;;;;;1.60;99.90;;;;;;5088602;28;19908;-75
2021/03/15 03:42:34;;;;;;;;;;;1.60;99.90;;;;;;5091529;28;19984;-75
2021/03/15 03:44:59;;;;;;;;;;;1.70;99.90;;;;;;5093350;28;20418;-75
2021/03/15 03:47:25;;;;;;;;;;;1.70;99.90;;;;;;5092712;28;19908;-75
2021/03/15 03:49:50;;;;;;;;;;;1.70;99.90;;;;;;5092859;28;20444;-75
2021/03/15 03:52:17;;;;;;;;;;;1.70;99.90;;;;;;5092923;28;19916;-75
2021/03/15 03:54:45;;;;;;;;;;;1.80;99.90;;;;;;5092767;28;19934;-75
2021/03/15 03:57:15;;;;;;;;;;;1.80;99.90;;;;;;5092373;28;19912;-75
2021/03/15 03:59:45;;;;;;;;;;;1.80;99.90;;;;;;5092724;28;20351;-75
2021/03/15 04:02:11;;;;;;;;;;;1.80;99.90;;;;;;5091340;28;20449;-75
2021/03/15 04:05:00;;;;;;;;;;;1.90;99.90;;;;;;5092726;28;20213;-75
2021/03/15 04:07:26;;;;;;;;;;;1.90;99.90;;;;;;5090803;28;19912;-75
2021/03/15 04:09:53;;;;;;;;;;;1.90;99.90;;;;;;5086211;28;19937;-75
2021/03/15 04:12:20;;;;;;;;;;;2.00;99.90;;;;;;5092318;28;19908;-76
2021/03/15 04:14:49;;;;;;;;;;;2.00;99.90;;;;;;5092314;28;19916;-75
2021/03/15 04:17:21;;;;;;;;;;;2.00;99.90;;;;;;5090871;28;20048;-75
2021/03/15 04:19:50;;;;;;;;;;;2.10;99.90;;;;;;5092432;28;20246;-76
2021/03/15 04:22:16;;;;;;;;;;;2.10;99.90;;;;;;5090842;28;19912;-76
2021/03/15 04:24:42;;;;;;;;;;;2.10;99.90;;;;;;5092212;28;19915;-76
2021/03/15 04:27:08;;;;;;;;;;;2.20;99.90;;;;;;5090625;28;19908;-76
2021/03/15 04:29:35;;;;;;;;;;;2.10;99.90;;;;;;5091942;28;19947;-76
2021/03/15 04:32:01;;;;;;;;;;;2.20;99.90;;;;;;5091813;28;19912;-76
2021/03/15 04:34:28;;;;;;;;;;;2.20;99.90;;;;;;5091891;28;19916;-76
2021/03/15 04:36:54;;;;;;;;;;;2.20;99.90;;;;;;5091648;28;19923;-76
2021/03/15 04:39:20;;;;;;;;;;;2.20;99.90;;;;;;5085468;28;19908;-76
2021/03/15 04:41:45;;;;;;;;;;;2.20;99.90;;;;;;5090491;28;19951;-76
2021/03/15 04:44:12;;;;;;;;;;;2.20;99.90;;;;;;5092039;28;19935;-76
2021/03/15 04:46:38;;;;;;;;;;;2.20;99.90;;;;;;5090266;28;19959;-76
2021/03/15 04:49:07;;;;;;;;;;;2.20;99.90;;;;;;5092289;28;19951;-76
2021/03/15 04:51:33;;;;;;;;;;;2.20;99.90;;;;;;5090335;28;19908;-76
2021/03/15 04:53:59;;;;;;;;;;;2.20;99.90;;;;;;5091715;28;19915;-75
2021/03/15 04:56:25;;;;;;;;;;;2.20;99.90;;;;;;5091439;28;20357;-75
2021/03/15 04:58:52;;;;;;;;;;;2.20;99.90;;;;;;5091621;28;19912;-76
2021/03/15 05:01:19;;;;;;;;;;;2.20;99.90;;;;;;5091681;28;19908;-75
2021/03/15 05:03:48;;;;;;;;;;;2.20;99.90;;;;;;5091288;28;20342;-75
2021/03/15 05:06:14;;;;;;;;;;;2.20;99.90;;;;;;5091264;28;19911;-75
2021/03/15 05:08:44;;;;;;;;;;;2.20;99.90;;;;;;5085969;28;19961;-75
2021/03/15 05:11:10;;;;;;;;;;;2.20;99.90;;;;;;5091159;28;19912;-75
2021/03/15 05:13:37;;;;;;;;;;;2.20;99.90;;;;;;5090196;28;19912;-75
2021/03/15 05:16:03;;;;;;;;;;;2.20;99.90;;;;;;5089700;28;20380;-75
2021/03/15 05:18:29;;;;;;;;;;;2.20;99.90;;;;;;5089921;28;20365;-75
2021/03/15 05:20:55;;;;;;;;;;;2.20;99.90;;;;;;5090042;28;19915;-75
2021/03/15 05:23:22;;;;;;;;;;;2.20;99.90;;;;;;5091362;28;19979;-75
2021/03/15 05:25:50;;;;;;;;;;;2.20;99.90;;;;;;5090942;28;20312;-75
2021/03/15 05:28:15;;;;;;;;;;;2.20;99.90;;;;;;5090049;28;19912;-75
2021/03/15 05:30:41;;;;;;;;;;;2.20;99.90;;;;;;5091193;28;19908;-75
2021/03/15 05:33:11;;;;;;;;;;;2.20;99.90;;;;;;5091142;28;19939;-75
2021/03/15 05:35:37;;;;;;;;;;;2.10;99.90;;;;;;5090780;28;20406;-75
2021/03/15 05:38:02;;;;;;;;;;;2.20;99.90;;;;;;5086356;28;19908;-75
2021/03/15 05:40:28;;;;;;;;;;;2.10;99.90;;;;;;5091187;28;19915;-75
2021/03/15 05:43:09;;;;;;;;;;;2.10;99.90;;;;;;5093032;28;19909;-75
2021/03/15 05:45:43;;;;;;;;;;;2.10;99.90;;;;;;5094968;28;19947;-75
2021/03/15 05:48:08;;;;;;;;;;;2.20;99.90;;;;;;5091639;28;19974;-75
2021/03/15 05:50:53;;;;;;;;;;;2.20;99.90;;;;;;5094259;28;20031;-75
2021/03/15 05:53:27;;;;;;;;;;;2.20;99.90;;;;;;5091683;28;20380;-75
2021/03/15 05:56:12;;;;;;;;;;;2.20;99.90;;;;;;5093196;28;20008;-75
2021/03/15 05:58:50;;;;;;;;;;;2.20;99.90;;;;;;5089408;28;19916;-75
2021/03/15 06:01:34;;;;;;;;;;;2.20;99.90;;;;;;5084700;28;19912;-75
2021/03/15 06:04:12;;;;;;;;;;;2.30;99.90;;;;;;5094788;28;20361;-75
2021/03/15 06:06:38;;;;;;;;;;;2.20;99.90;;;;;;5094557;28;20319;-75
2021/03/15 06:09:05;;;;;;;;;;;2.30;99.90;;;;;;5088956;28;19908;-75
2021/03/15 06:11:38;;;;;;;;;;;2.20;99.90;;;;;;5113841;28;19908;-75
2021/03/15 06:14:06;;;;;;;;;;;2.20;99.90;;;;;;5115083;28;19912;-75
2021/03/15 06:16:33;;;;;;;;;;;2.20;99.90;;;;;;5113382;28;19907;-75
2021/03/15 06:18:59;;;;;;;;;;;2.30;99.90;;;;;;5098360;28;20285;-75
2021/03/15 06:21:25;;;;;;;;;;;2.30;99.90;;;;;;5094483;28;19947;-75
2021/03/15 06:23:50;;;;;;;;;;;2.30;99.90;;;;;;5094470;28;19947;-75
2021/03/15 06:26:16;;;;;;;;;;;2.30;99.90;;;;;;5094339;28;19965;-75
2021/03/15 06:28:42;;;;;;;;;;;2.30;99.90;;;;;;5093511;28;19965;-75
2021/03/15 06:31:09;;;;;;;;;;;2.20;99.90;;;;;;5094283;28;19962;-75
2021/03/15 06:33:35;;;;;;;;;;;2.20;99.90;;;;;;5094223;28;19927;-75
2021/03/15 06:36:02;;;;;;;;;;;2.20;99.90;;;;;;5092596;28;20296;-75
2021/03/15 06:38:28;;;;;;;;;;;2.10;99.90;;;;;;5088690;28;19908;-74
2021/03/15 06:40:53;;;;;;;;;;;2.10;99.90;;;;;;5092983;28;19909;-75
2021/03/15 06:43:20;;;;;;;;;;;2.10;99.90;;;;;;5092994;28;20261;-75
2021/03/15 06:45:46;;;;;;;;;;;2.10;99.90;;;;;;5090699;28;19912;-75
2021/03/15 06:48:11;;;;;;;;;;;2.10;99.90;;;;;;5091106;28;19908;-75
2021/03/15 06:50:37;;;;;;;;;;;2.10;99.90;;;;;;5092336;28;20330;-75
2021/03/15 06:53:04;;;;;;;;;;;2.20;99.90;;;;;;5092173;28;19908;-75
2021/03/15 06:55:31;;;;;;;;;;;2.20;99.90;;;;;;5092350;28;20006;-75
2021/03/15 06:57:57;;;;;;;;;;;2.30;99.90;;;;;;5090729;28;19986;-75
2021/03/15 07:00:24;;;;;;;;;;;2.30;99.90;;;;;;5092099;28;19933;-75
2021/03/15 07:02:59;;;;;;;;;;;2.30;99.90;;;;;;5084688;28;19912;-75
2021/03/15 07:05:25;;;;;;;;;;;2.30;99.90;;;;;;5091794;28;19939;-75
2021/03/15 07:07:52;;;;;;;;;;;2.40;99.90;;;;;;5089137;28;19912;-75
2021/03/15 07:10:20;;;;;;;;;;;2.40;99.90;;;;;;5091684;28;19950;-75
2021/03/15 07:12:45;;;;;;;;;;;2.60;99.90;;;;;;5091780;28;19966;-75
2021/03/15 07:15:11;;;;;;;;;;;2.80;99.90;;;;;;5092028;28;20385;-75
2021/03/15 07:17:37;;;;;;;;;;;2.90;99.90;;;;;;5092205;28;19908;-75
2021/03/15 07:20:03;;;;;;;;;;;3.00;99.90;;;;;;5093027;28;20403;-75
2021/03/15 07:22:29;;;;;;;;;;;3.10;99.90;;;;;;5093274;28;19915;-76
2021/03/15 07:25:02;;;;;;;;;;;3.10;99.90;;;;;;5091370;28;19922;-75
2021/03/15 07:27:28;;;;;;;;;;;3.20;99.90;;;;;;5077924;28;19924;-75
2021/03/15 07:29:53;;;;;;;;;;;3.20;99.90;;;;;;5089282;28;19999;-76
2021/03/15 07:32:37;;;;;;;;;;;3.20;99.90;;;;;;5091536;28;20010;-75
2021/03/15 07:35:18;;;;;;;;;;;3.10;99.90;;;;;;5043617;28;1287849;-75
2021/03/15 07:37:44;;;;;;;;;;;2.90;99.90;;;;;;5087552;28;19953;-75
2021/03/15 07:40:09;;;;;;;;;;;2.80;99.90;;;;;;5091871;28;20000;-75
2021/03/15 07:42:35;;;;;;;;;;;2.60;99.90;;;;;;5090968;28;19914;-75
2021/03/15 07:45:00;;;;;;;;;;;2.50;99.90;;;;;;5092388;28;19908;-75
2021/03/15 07:47:27;;;;;;;;;;;2.50;99.90;;;;;;5092046;28;19916;-76
2021/03/15 07:49:58;;;;;;;;;;;2.50;99.90;;;;;;5090996;28;19918;-75
2021/03/15 07:52:38;;;;;;;;;;;2.50;99.90;;;;;;5085981;28;19912;-75
2021/03/15 07:55:04;;;;;;;;;;;2.50;99.90;;;;;;5090138;28;19965;-75
2021/03/15 07:57:32;;;;;;;;;;;2.60;99.90;;;;;;5087650;28;19912;-75
2021/03/15 07:59:58;;;;;;;;;;;2.60;99.90;;;;;;5095736;28;19908;-76
2021/03/15 08:02:25;;;;;;;;;;;2.70;99.90;;;;;;5088937;28;19908;-75
2021/03/15 08:04:51;;;;;;;;;;;2.70;99.90;;;;;;5086850;28;19912;-75
2021/03/15 08:07:17;;;;;;;;;;;2.80;99.90;;;;;;5086665;28;19913;-75
2021/03/15 08:09:43;;;;;;;;;;;2.90;99.90;;;;;;5089178;28;19908;-75
2021/03/15 08:12:10;;;;;;;;;;;3.00;99.90;;;;;;5089949;28;20369;-75
2021/03/15 08:14:36;;;;;;;;;;;3.10;99.90;;;;;;5088481;28;19912;-75
2021/03/15 08:17:03;;;;;;;;;;;3.20;99.90;;;;;;5089214;28;19951;-75
2021/03/15 08:19:30;;;;;;;;;;;3.30;99.90;;;;;;5085798;28;19912;-75
2021/03/15 08:21:57;;;;;;;;;;;3.50;99.90;;;;;;5086346;28;19969;-76
2021/03/15 08:24:23;;;;;;;;;;;3.70;99.90;;;;;;5082503;28;19999;-75
2021/03/15 08:26:50;;;;;;;;;;;3.80;99.90;;;;;;5095485;28;19911;-76
2021/03/15 08:29:16;;;;;;;;;;;3.80;99.90;;;;;;5092816;28;20289;-76
2021/03/15 08:31:43;;;;;;;;;;;3.80;99.90;;;;;;5100486;28;19908;-76
2021/03/15 08:34:13;;;;;;;;;;;3.80;99.90;;;;;;5088559;28;19916;-76
2021/03/15 08:36:39;;;;;;;;;;;3.80;99.90;;;;;;5090255;28;20297;-76
2021/03/15 08:39:24;;;;;;;;;;;3.70;99.90;;;;;;5085923;28;19916;-75
2021/03/15 08:42:10;;;;;;;;;;;3.70;99.90;;;;;;5090473;28;19915;-75
2021/03/15 08:44:36;;;;;;;;;;;3.60;99.90;;;;;;5078516;28;19912;-76
2021/03/15 08:47:02;;;;;;;;;;;3.50;99.90;;;;;;5087507;28;19951;-75
2021/03/15 08:49:30;;;;;;;;;;;3.40;99.90;;;;;;5088394;28;20386;-75
2021/03/15 08:51:56;;;;;;;;;;;3.30;99.90;;;;;;5087804;28;20326;-75
2021/03/15 08:54:38;;;;;;;;;;;3.30;99.90;;;;;;5087674;28;19912;-75
2021/03/15 08:57:04;;;;;;;;;;;3.30;99.90;;;;;;5090968;28;19934;-75
2021/03/15 08:59:32;;;;;;;;;;;3.40;99.90;;;;;;5095961;28;19912;-76
2021/03/15 09:02:00;;;;;;;;;;;3.50;99.90;;;;;;5090459;28;20392;-75
2021/03/15 09:04:27;;;;;;;;;;;3.50;99.90;;;;;;5088603;28;19960;-75
2021/03/15 09:06:53;;;;;;;;;;;3.50;99.90;;;;;;5087412;28;19942;-75
2021/03/15 09:09:26;;;;;;;;;;;3.50;99.90;;;;;;5085776;28;19947;-75
2021/03/15 09:11:52;;;;;;;;;;;3.60;99.90;;;;;;5088117;28;19912;-75
2021/03/15 09:14:22;;;;;;;;;;;3.60;99.90;;;;;;5089152;28;20096;-75
2021/03/15 09:16:56;;;;;;;;;;;3.60;99.90;;;;;;5089626;28;19908;-76
2021/03/15 09:19:27;;;;;;;;;;;3.60;99.90;;;;;;5090236;28;20498;-76
2021/03/15 09:21:53;;;;;;;;;;;3.60;99.90;;;;;;5086609;28;19919;-75
2021/03/15 09:24:34;;;;;;;;;;;3.70;99.90;;;;;;5086776;28;19908;-76
2021/03/15 09:27:01;;;;;;;;;;;3.70;99.90;;;;;;5081939;28;19983;-75
2021/03/15 09:29:27;;;;;;;;;;;3.70;99.90;;;;;;5101954;28;19949;-76
2021/03/15 09:32:13;;;;;;;;;;;3.70;99.90;;;;;;5103997;28;20327;-75
2021/03/15 09:34:38;;;;;;;;;;;3.70;99.90;;;;;;5092161;28;19964;-76
2021/03/15 09:37:04;;;;;;;;;;;3.80;99.90;;;;;;5090090;28;19909;-75
2021/03/15 09:39:31;;;;;;;;;;;3.80;99.90;;;;;;5077366;28;20049;-76
2021/03/15 09:42:00;;;;;;;;;;;3.80;99.90;;;;;;5083742;28;19919;-76
2021/03/15 09:44:30;;;;;;;;;;;3.80;99.90;;;;;;5085691;28;20019;-76
2021/03/15 09:46:56;;;;;;;;;;;3.90;99.90;;;;;;5091515;28;19919;-76
2021/03/15 09:49:32;;;;;;;;;;;3.90;99.90;;;;;;5089986;28;19912;-77
2021/03/15 09:52:10;;;;;;;;;;;3.90;99.90;;;;;;5092759;28;19958;-76
2021/03/15 09:54:39;;;;;;;;;;;3.90;99.90;;;;;;5091559;28;19920;-77
2021/03/15 09:57:05;;;;;;;;;;;4.00;99.90;;;;;;5089062;28;20319;-77
2021/03/15 09:59:31;;;;;;;;;;;4.10;99.90;;;;;;5086690;28;19915;-77
2021/03/15 10:01:56;;;;;;;;;;;4.20;99.90;;;;;;5084876;28;19916;-76
2021/03/15 10:04:22;;;;;;;;;;;4.30;99.90;;;;;;5086268;28;19943;-76
2021/03/15 10:06:47;;;;;;;;;;;4.40;99.90;;;;;;5079101;28;19981;-77
2021/03/15 10:09:13;;;;;;;;;;;4.50;99.90;;;;;;5079575;28;19908;-76
2021/03/15 10:11:42;;;;;;;;;;;4.60;99.90;;;;;;5082722;28;19948;-76
2021/03/15 10:14:07;;;;;;;;;;;4.60;99.90;;;;;;5082136;28;19908;-76
2021/03/15 10:16:33;;;;;;;;;;;4.60;99.90;;;;;;5085773;28;20226;-77
2021/03/15 10:18:58;;;;;;;;;;;4.60;99.90;;;;;;5083023;28;20559;-76
2021/03/15 10:21:25;;;;;;;;;;;4.70;99.90;;;;;;5097413;28;19908;-77
2021/03/15 10:23:50;;;;;;;;;;;4.80;99.90;;;;;;5084388;28;20285;-77
2021/03/15 10:26:16;;;;;;;;;;;4.90;99.90;;;;;;5086347;28;19912;-77
2021/03/15 10:28:41;;;;;;;;;;;5.00;99.90;;;;;;5088874;28;20002;-77
2021/03/15 10:31:07;;;;;;;;;;;4.90;99.90;;;;;;5092908;28;19915;-77
2021/03/15 10:33:32;;;;;;;;;;;4.90;99.90;;;;;;5086516;28;19912;-76
2021/03/15 10:35:58;;;;;;;;;;;4.90;99.90;;;;;;5091740;28;19916;-76
2021/03/15 10:38:26;;;;;;;;;;;4.90;99.90;;;;;;5092445;28;19954;-76
2021/03/15 10:40:51;;;;;;;;;;;4.90;99.90;;;;;;5092902;28;19909;-77
2021/03/15 10:43:18;;;;;;;;;;;4.90;99.90;;;;;;5091697;28;20002;-76
2021/03/15 10:45:44;;;;;;;;;;;5.00;99.90;;;;;;5092287;28;19938;-77
2021/03/15 10:48:09;;;;;;;;;;;5.00;99.90;;;;;;5090253;28;20373;-77
2021/03/15 10:50:36;;;;;;;;;;;5.10;99.90;;;;;;5091327;28;19915;-76
2021/03/15 10:53:10;;;;;;;;;;;5.10;99.90;;;;;;5090698;28;20331;-76
2021/03/15 10:55:36;;;;;;;;;;;5.10;99.90;;;;;;5092457;28;19955;-77
2021/03/15 10:58:03;;;;;;;;;;;5.00;99.90;;;;;;5090731;28;19974;-77
2021/03/15 11:00:30;;;;;;;;;;;5.00;99.90;;;;;;5097696;28;20256;-76
2021/03/15 11:02:56;;;;;;;;;;;5.00;99.90;;;;;;5094014;28;19918;-77
2021/03/15 11:05:22;;;;;;;;;;;5.10;99.90;;;;;;5092296;28;19991;-77
2021/03/15 11:07:48;;;;;;;;;;;5.10;99.90;;;;;;5091539;28;19999;-76
2021/03/15 11:10:15;;;;;;;;;;;5.10;99.90;;;;;;5093802;28;19934;-77
2021/03/15 11:12:42;;;;;;;;;;;5.20;99.90;;;;;;5089470;28;19908;-77
2021/03/15 11:15:11;;;;;;;;;;;5.30;99.90;;;;;;5113862;28;19912;-77
2021/03/15 11:17:37;;;;;;;;;;;5.50;99.90;;;;;;5113742;28;19911;-77
2021/03/15 11:20:04;;;;;;;;;;;5.50;99.90;;;;;;5112614;28;19933;-77
2021/03/15 11:22:43;;;;;;;;;;;5.50;99.90;;;;;;5112533;28;19915;-77
2021/03/15 11:25:09;;;;;;;;;;;5.70;99.90;;;;;;5112465;28;19907;-77
2021/03/15 11:27:35;;;;;;;;;;;5.80;99.90;;;;;;5113488;28;19912;-77
2021/03/15 11:30:00;;;;;;;;;;;5.80;99.90;;;;;;5113903;28;20308;-77
2021/03/15 11:32:26;;;;;;;;;;;5.80;99.90;;;;;;5113824;28;19916;-77
2021/03/15 11:34:52;;;;;;;;;;;5.70;99.90;;;;;;5112337;28;20367;-77
2021/03/15 11:37:28;;;;;;;;;;;5.50;99.90;;;;;;5112099;28;19908;-76
2021/03/15 11:39:53;;;;;;;;;;;5.40;99.90;;;;;;5097488;28;19912;-76
2021/03/15 11:42:37;;;;;;;;;;;5.30;99.90;;;;;;5099521;28;19957;-76
2021/03/15 11:45:03;;;;;;;;;;;5.30;99.90;;;;;;5093022;28;20320;-77
2021/03/15 11:47:28;;;;;;;;;;;5.40;99.90;;;;;;5088407;28;19908;-77
2021/03/15 11:49:54;;;;;;;;;;;5.70;99.90;;;;;;5092755;28;19908;-77
2021/03/15 11:52:23;;;;;;;;;;;6.00;99.90;;;;;;5092804;28;19912;-77
2021/03/15 11:54:48;;;;;;;;;;;6.30;99.90;;;;;;5091711;28;20011;-77
2021/03/15 11:57:14;;;;;;;;;;;6.40;99.90;;;;;;5089229;28;20440;-77
2021/03/15 11:59:39;;;;;;;;;;;6.40;99.90;;;;;;5091146;28;19928;-77
2021/03/15 12:02:05;;;;;;;;;;;6.50;99.90;;;;;;5087848;28;20365;-78
2021/03/15 12:04:30;;;;;;;;;;;6.50;99.90;;;;;;5092301;28;19952;-77
2021/03/15 12:06:56;;;;;;;;;;;6.50;99.90;;;;;;5085612;28;19919;-77
2021/03/15 12:09:21;;;;;;;;;;;6.50;99.90;;;;;;5092526;28;20031;-77
2021/03/15 12:11:47;;;;;;;;;;;6.40;99.90;;;;;;5088580;28;19908;-77
2021/03/15 12:14:12;;;;;;;;;;;6.30;99.90;;;;;;5088646;28;19934;-77
2021/03/15 12:16:38;;;;;;;;;;;6.10;99.90;;;;;;5092094;28;20002;-77
2021/03/15 12:19:03;;;;;;;;;;;5.90;99.90;;;;;;5091185;28;20316;-75
2021/03/15 12:21:29;;;;;;;;;;;5.30;99.90;;;;;;5092126;28;19999;-76
2021/03/15 12:23:54;;;;;;;;;;;5.00;99.90;;;;;;5092437;28;20398;-78
2021/03/15 12:26:19;;;;;;;;;;;4.70;99.90;;;;;;5090253;28;19912;-76
2021/03/15 12:28:45;;;;;;;;;;;4.70;99.90;;;;;;5090353;28;19909;-76
2021/03/15 12:31:10;;;;;;;;;;;4.70;99.90;;;;;;5089153;28;19971;-77
2021/03/15 12:33:36;;;;;;;;;;;4.70;99.90;;;;;;5090486;28;20368;-77
2021/03/15 12:36:01;;;;;;;;;;;4.70;99.90;;;;;;5091774;28;19965;-76
2021/03/15 12:38:27;;;;;;;;;;;4.80;99.90;;;;;;5085720;28;19958;-77
2021/03/15 12:40:52;;;;;;;;;;;4.90;99.90;;;;;;5091835;28;19908;-77
2021/03/15 12:43:18;;;;;;;;;;;5.10;99.90;;;;;;5083964;28;19953;-77
2021/03/15 12:45:43;;;;;;;;;;;5.40;99.90;;;;;;5090228;28;20002;-75
2021/03/15 12:48:09;;;;;;;;;;;5.60;99.90;;;;;;5091945;28;19912;-78
2021/03/15 12:50:35;;;;;;;;;;;5.80;99.90;;;;;;5091474;28;19908;-75
2021/03/15 12:53:00;;;;;;;;;;;6.10;99.90;;;;;;5091636;28;19908;-76
2021/03/15 12:55:26;;;;;;;;;;;6.30;99.90;;;;;;5090366;28;19916;-76
2021/03/15 12:57:51;;;;;;;;;;;6.30;99.90;;;;;;5088211;28;20392;-79
2021/03/15 13:00:17;;;;;;;;;;;6.30;99.90;;;;;;5098077;28;19947;-75
2021/03/15 13:02:42;;;;;;;;;;;6.40;99.90;;;;;;5111936;28;19908;-76
2021/03/15 13:05:08;;;;;;;;;;;6.40;99.90;;;;;;5110779;28;19908;-76
2021/03/15 13:07:33;;;;;;;;;;;6.40;99.90;;;;;;5110362;28;20283;-78
2021/03/15 13:09:59;;;;;;;;;;;6.20;99.90;;;;;;5112282;28;20302;-75
2021/03/15 13:12:26;;;;;;;;;;;6.20;99.90;;;;;;5100963;28;20007;-80
2021/03/15 13:14:51;;;;;;;;;;;6.20;99.90;;;;;;5091232;28;20377;-76
2021/03/15 13:17:17;;;;;;;;;;;6.10;99.90;;;;;;5091664;28;19914;-76
2021/03/15 13:19:42;;;;;;;;;;;5.90;99.90;;;;;;5091193;28;19908;-76
2021/03/15 13:22:08;;;;;;;;;;;5.90;99.90;;;;;;5090138;28;20357;-79
2021/03/15 13:24:34;;;;;;;;;;;5.80;99.90;;;;;;5091294;28;19908;-76
2021/03/15 13:26:59;;;;;;;;;;;5.80;99.90;;;;;;5090932;28;19908;-76
2021/03/15 13:29:25;;;;;;;;;;;5.80;99.90;;;;;;5088550;28;19908;-76
2021/03/15 13:31:50;;;;;;;;;;;5.90;99.90;;;;;;5091072;28;19931;-78
2021/03/15 13:34:15;;;;;;;;;;;5.90;99.90;;;;;;5090642;28;19935;-75
2021/03/15 13:36:41;;;;;;;;;;;5.90;99.90;;;;;;5087934;28;19916;-75
2021/03/15 13:39:06;;;;;;;;;;;5.90;99.90;;;;;;5083733;28;19997;-75
2021/03/15 13:41:32;;;;;;;;;;;5.90;99.90;;;;;;5088034;28;19912;-75
2021/03/15 13:43:57;;;;;;;;;;;6.00;99.90;;;;;;5094110;28;20159;-75
2021/03/15 13:46:23;;;;;;;;;;;6.00;99.90;;;;;;5090127;28;20434;-75
2021/03/15 13:48:48;;;;;;;;;;;6.10;99.90;;;;;;5083565;28;19912;-80
2021/03/15 13:51:14;;;;;;;;;;;6.20;99.90;;;;;;5089286;28;20395;-75
2021/03/15 13:53:39;;;;;;;;;;;6.30;99.90;;;;;;5088326;28;19991;-75
2021/03/15 13:56:05;;;;;;;;;;;6.30;99.90;;;;;;5090566;28;20296;-76
2021/03/15 13:58:30;;;;;;;;;;;6.40;99.90;;;;;;5086389;28;19908;-75
2021/03/15 14:00:56;;;;;;;;;;;6.40;99.90;;;;;;5088377;28;19961;-75
2021/03/15 14:03:21;;;;;;;;;;;6.50;99.90;;;;;;5083248;28;20396;-76
2021/03/15 14:05:47;;;;;;;;;;;6.70;99.90;;;;;;5093066;28;19915;-77
2021/03/15 14:08:12;;;;;;;;;;;6.70;99.90;;;;;;5093705;28;19914;-75
2021/03/15 14:10:38;;;;;;;;;;;6.80;99.90;;;;;;5094640;28;19908;-75
2021/03/15 14:13:03;;;;;;;;;;;7.10;99.90;;;;;;5084893;28;19970;-78
2021/03/15 14:15:29;;;;;;;;;;;7.20;99.90;;;;;;5088755;28;19912;-79
2021/03/15 14:17:54;;;;;;;;;;;7.30;99.90;;;;;;5091549;28;19961;-75
2021/03/15 14:20:20;;;;;;;;;;;7.40;99.90;;;;;;5094662;28;20284;-76
2021/03/15 14:22:45;;;;;;;;;;;7.40;99.90;;;;;;5094406;28;20172;-77
2021/03/15 14:25:12;;;;;;;;;;;7.20;99.90;;;;;;5087302;28;19973;-76
2021/03/15 14:27:38;;;;;;;;;;;6.90;99.90;;;;;;5087513;28;19912;-79
2021/03/15 14:30:04;;;;;;;;;;;6.60;99.90;;;;;;5095257;28;19915;-80
2021/03/15 14:32:29;;;;;;;;;;;6.40;99.90;;;;;;5091322;28;19912;-78